Time;durP1;ratioP1;P1;durP2;ratioP2;P2;SDS_P1;SDS_P2;PMS_P1;PMS_P2;Temp;Humidity;BMP_temperature;BMP_pressure;BME280_temperature;BME280_humidity;BME280_pressure;Samples;Min_cycle;Max_cycle;Signal;HPM_P1;HPM_P2
2022/08/27 00:02:07;;;;;;;11.25;3.90;;;;;;;19.71;75.60;94116.81;5068743;28;20181;-64
2022/08/27 00:04:33;;;;;;;6.22;2.95;;;;;;;19.78;77.92;94091.81;5087220;28;20212;-64
2022/08/27 00:06:59;;;;;;;11.45;3.75;;;;;;;19.73;75.75;94117.41;5068520;28;20168;-64
2022/08/27 00:09:25;;;;;;;8.38;3.53;;;;;;;19.68;77.70;94097.38;5055002;28;20584;-63
2022/08/27 00:11:51;;;;;;;5.43;3.42;;;;;;;19.65;76.60;94102.94;5073380;28;20188;-64
2022/08/27 00:14:17;;;;;;;11.32;3.58;;;;;;;19.64;76.52;94103.91;5073312;28;20347;-63
2022/08/27 00:16:42;;;;;;;11.23;4.15;;;;;;;19.67;76.29;94107.88;5038769;28;20208;-63
2022/08/27 00:19:09;;;;;;;8.25;3.45;;;;;;;19.65;76.07;94112.44;5073189;28;20217;-61
2022/08/27 00:21:34;;;;;;;8.18;3.38;;;;;;;19.72;76.03;94111.44;5073142;28;20180;-63
2022/08/27 00:24:00;;;;;;;8.05;3.28;;;;;;;19.78;75.61;94115.81;5054961;28;20307;-61
2022/08/27 00:26:27;;;;;;;10.23;3.70;;;;;;;19.84;74.15;94129.69;5055197;28;20249;-62
2022/08/27 00:28:52;;;;;;;9.38;3.47;;;;;;;19.70;73.67;94130.69;5073321;28;20750;-62
2022/08/27 00:31:18;;;;;;;8.68;3.25;;;;;;;19.60;73.88;94123.34;5072901;28;20185;-64
2022/08/27 00:33:43;;;;;;;8.90;3.58;;;;;;;19.50;74.04;94114.41;5072891;28;20213;-62
2022/08/27 00:36:10;;;;;;;6.43;3.50;;;;;;;19.58;74.31;94115.03;5073029;28;20254;-61
2022/08/27 00:38:37;;;;;;;7.13;3.30;;;;;;;19.45;74.41;94116.81;5054853;28;20224;-60
2022/08/27 00:41:05;;;;;;;9.25;2.80;;;;;;;19.39;74.69;94113.22;5054747;28;20268;-61
2022/08/27 00:43:58;;;;;;;6.93;2.88;;;;;;;19.37;75.19;94104.09;5072623;28;20216;-63
2022/08/27 00:46:46;;;;;;;9.68;3.20;;;;;;;19.26;76.08;94093.34;5072821;28;20256;-64
2022/08/27 00:49:18;;;;;;;8.07;3.22;;;;;;;19.22;76.17;94096.50;5058765;22;20217;-61
2022/08/27 00:51:56;;;;;;;13.48;3.70;;;;;;;19.19;76.45;94091.72;5052422;28;20195;-62
2022/08/27 00:54:23;;;;;;;5.68;2.70;;;;;;;19.22;76.48;94092.16;5052423;28;20213;-62
2022/08/27 00:56:49;;;;;;;7.85;3.08;;;;;;;19.14;76.86;94086.38;5052225;28;20267;-61
2022/08/27 00:59:17;;;;;;;5.93;2.97;;;;;;;19.18;77.06;94087.56;5052183;28;20213;-61
2022/08/27 01:04:31;;;;;;;6.38;3.30;;;;;;;19.27;77.43;94086.38;5052938;28;20274;-63
2022/08/27 01:06:58;;;;;;;9.93;3.35;;;;;;;19.34;78.00;94081.28;5052314;28;20211;-63
2022/08/27 01:09:25;;;;;;;10.73;3.42;;;;;;;19.51;74.97;94118.59;5051155;28;20225;-64
2022/08/27 01:11:54;;;;;;;5.97;3.20;;;;;;;19.43;75.35;94111.03;5052374;28;20186;-63
2022/08/27 01:14:20;;;;;;;10.73;3.00;;;;;;;19.40;75.90;94101.13;5052499;28;20646;-64
2022/08/27 01:16:50;;;;;;;13.65;3.80;;;;;;;19.23;77.70;94075.69;5052087;28;20687;-63
2022/08/27 01:19:28;;;;;;;4.82;2.92;;;;;;;19.25;76.80;94085.78;5050537;28;20214;-60
2022/08/27 01:22:21;;;;;;;12.07;3.65;;;;;;;19.25;77.12;94085.78;5052398;28;20223;-65
2022/08/27 01:24:50;;;;;;;7.68;3.65;;;;;;;19.29;77.35;94089.56;5052019;28;20210;-62
2022/08/27 01:27:20;;;;;;;7.50;3.15;;;;;;;19.22;76.82;94097.31;5052080;28;20576;-62
2022/08/27 01:29:47;;;;;;;7.10;3.55;;;;;;;19.15;77.57;94095.69;5052368;28;20218;-61
2022/08/27 01:32:23;;;;;;;11.88;3.70;;;;;;;18.91;78.94;94065.31;5052126;28;20224;-61
2022/08/27 01:34:49;;;;;;;6.82;3.58;;;;;;;18.67;81.17;94060.69;5051876;28;20209;-62
2022/08/27 01:37:16;;;;;;;6.93;3.53;;;;;;;18.63;81.33;94057.72;5067165;28;20596;-62
2022/08/27 01:39:43;;;;;;;7.93;3.40;;;;;;;18.59;82.16;94051.34;5050465;28;20224;-61
2022/08/27 01:42:14;;;;;;;10.82;3.45;;;;;;;18.53;82.43;94059.06;5067137;28;20268;-61
2022/08/27 01:44:50;;;;;;;10.73;3.50;;;;;;;18.39;83.28;94058.97;5051804;28;20225;-64
2022/08/27 01:47:18;;;;;;;11.50;3.88;;;;;;;18.43;83.20;94062.78;5050972;28;20631;-61
2022/08/27 01:49:44;;;;;;;9.98;3.40;;;;;;;18.30;83.77;94060.13;5052096;28;20220;-61
2022/08/27 01:52:09;;;;;;;10.82;3.72;;;;;;;18.35;83.87;94068.06;5051732;28;20178;-63
2022/08/27 01:54:35;;;;;;;6.50;3.35;;;;;;;18.39;83.61;94073.63;5050196;28;20205;-63
2022/08/27 01:57:00;;;;;;;6.97;3.53;;;;;;;18.38;82.93;94080.53;5033690;28;20209;-63
2022/08/27 01:59:26;;;;;;;6.32;3.45;;;;;;;18.35;83.80;94075.00;5051690;28;20232;-62
2022/08/27 02:01:53;;;;;;;6.43;3.00;;;;;;;18.37;83.86;94073.81;5051417;28;20256;-61
2022/08/27 02:04:19;;;;;;;5.45;3.40;;;;;;;18.35;84.43;94073.22;5051388;28;20213;-61
2022/08/27 02:06:45;;;;;;;7.25;3.38;;;;;;;18.37;84.94;94073.81;5051290;28;20574;-62
2022/08/27 02:09:12;;;;;;;9.85;3.95;;;;;;;18.46;84.65;94079.63;5051644;28;20610;-62
2022/08/27 02:11:37;;;;;;;10.00;3.83;;;;;;;18.52;83.85;94090.94;5050178;28;20275;-63
2022/08/27 02:14:04;;;;;;;12.73;3.67;;;;;;;18.61;84.81;94079.47;5051597;28;20312;-62
2022/08/27 02:16:31;;;;;;;8.60;3.38;;;;;;;18.51;84.73;94079.03;5049852;28;20264;-65
2022/08/27 02:18:57;;;;;;;9.07;3.83;;;;;;;18.43;85.17;94073.09;5050247;28;20304;-65
2022/08/27 02:21:23;;;;;;;10.00;4.72;;;;;;;18.53;85.20;94089.94;5051205;28;20284;-62
2022/08/27 02:23:48;;;;;;;7.22;3.40;;;;;;;18.74;84.63;94102.72;5051353;28;20290;-61
2022/08/27 02:26:13;;;;;;;5.88;3.70;;;;;;;18.73;85.07;94093.38;5051247;28;20348;-61
2022/08/27 02:28:39;;;;;;;9.77;3.70;;;;;;;18.75;83.85;94112.03;5051017;28;20279;-64
2022/08/27 02:31:04;;;;;;;8.95;3.70;;;;;;;18.63;83.63;94119.50;5049635;28;20242;-64
2022/08/27 02:33:32;;;;;;;8.63;3.55;;;;;;;18.64;84.11;94094.56;5051142;28;20220;-64
2022/08/27 02:35:57;;;;;;;8.95;3.67;;;;;;;18.65;84.23;94120.09;5050019;28;20217;-64
2022/08/27 02:38:23;;;;;;;10.35;4.32;;;;;;;18.51;84.81;94102.22;5049870;28;20198;-62
2022/08/27 02:40:48;;;;;;;11.88;4.03;;;;;;;18.57;85.02;94104.81;5051079;28;20183;-64
2022/08/27 02:43:14;;;;;;;9.02;3.92;;;;;;;18.68;84.94;94106.06;5049661;28;20200;-63
2022/08/27 02:45:39;;;;;;;13.73;3.95;;;;;;;18.56;86.91;94077.50;5050889;28;20647;-65
2022/08/27 02:48:11;;;;;;;9.82;4.57;;;;;;;18.64;86.36;94097.94;5049421;28;20192;-64
2022/08/27 02:50:37;;;;;;;5.70;3.70;;;;;;;18.88;85.29;94117.22;5050759;28;20186;-65
2022/08/27 02:53:05;;;;;;;10.90;3.78;;;;;;;19.00;84.46;94123.41;5049353;28;20190;-63
2022/08/27 02:55:31;;;;;;;11.68;4.32;;;;;;;18.80;86.41;94099.38;5050551;28;20275;-63
2022/08/27 02:57:57;;;;;;;12.30;4.93;;;;;;;18.89;85.78;94106.72;5049330;28;20201;-64
2022/08/27 03:00:24;;;;;;;7.43;3.95;;;;;;;18.79;86.87;94097.75;5050818;28;20283;-64
2022/08/27 03:02:50;;;;;;;11.75;5.00;;;;;;;18.81;86.67;94095.78;5050679;28;20186;-64
2022/08/27 03:05:17;;;;;;;7.13;4.03;;;;;;;18.85;87.41;94097.78;5049414;28;20227;-61
2022/08/27 03:07:44;;;;;;;9.65;4.13;;;;;;;18.90;87.49;94090.31;5050430;28;20268;-61
2022/08/27 03:10:12;;;;;;;9.35;4.13;;;;;;;19.01;87.55;94101.78;5050589;28;20661;-64
2022/08/27 03:12:38;;;;;;;6.57;4.38;;;;;;;19.17;86.63;94119.47;5050433;28;20196;-63
2022/08/27 03:15:09;;;;;;;11.07;4.30;;;;;;;19.07;87.02;94112.13;5050774;28;20193;-61
2022/08/27 03:20:18;;;;;;;10.55;4.80;;;;;;;19.16;87.93;94110.16;5050570;28;20298;-63
2022/08/27 03:22:44;;;;;;;7.30;4.10;;;;;;;19.19;87.59;94102.84;5050424;28;20240;-63
2022/08/27 03:25:11;;;;;;;10.07;4.43;;;;;;;19.46;86.88;94126.91;5049071;28;20216;-63
2022/08/27 03:27:38;;;;;;;8.38;4.50;;;;;;;19.42;87.12;94130.06;5049182;28;20269;-66
2022/08/27 03:30:10;;;;;;;11.20;4.88;;;;;;;19.06;88.63;94102.03;5049172;28;20738;-61
2022/08/27 03:32:37;;;;;;;11.23;4.45;;;;;;;18.91;89.83;94099.59;5050387;28;20221;-63
2022/08/27 03:35:03;;;;;;;12.88;4.63;;;;;;;18.86;89.98;94098.59;5086608;22;20216;-64
2022/08/27 03:37:28;;;;;;;15.70;5.28;;;;;;;19.01;89.19;94122.41;5090376;28;20212;-63
2022/08/27 03:39:54;;;;;;;9.88;4.93;;;;;;;19.05;87.77;94141.66;5090338;28;20202;-63
2022/08/27 03:42:21;;;;;;;17.05;5.80;;;;;;;18.95;87.27;94148.94;5090608;28;20241;-63
2022/08/27 03:44:47;;;;;;;10.98;4.55;;;;;;;18.72;86.71;94153.63;5093871;28;20644;-63
2022/08/27 03:47:12;;;;;;;9.43;4.50;;;;;;;18.59;86.75;94148.38;5093774;28;20196;-62
2022/08/27 03:49:38;;;;;;;12.82;5.00;;;;;;;18.44;88.34;94126.16;5094016;28;20208;-63
2022/08/27 03:52:04;;;;;;;7.18;4.38;;;;;;;18.42;87.72;94145.31;5093737;28;20184;-61
2022/08/27 03:54:30;;;;;;;14.98;4.93;;;;;;;18.58;87.58;94139.09;5094139;28;20236;-63
2022/08/27 03:56:56;;;;;;;15.15;5.05;;;;;;;18.63;87.07;94154.75;5093598;28;20219;-61
2022/08/27 03:59:21;;;;;;;7.63;4.00;;;;;;;18.48;87.27;94151.53;5093809;28;20219;-63
2022/08/27 04:01:47;;;;;;;5.50;3.45;;;;;;;18.53;85.60;94180.06;5075538;28;20192;-61
2022/08/27 04:04:13;;;;;;;9.88;3.78;;;;;;;18.47;84.62;94196.25;5093595;28;20207;-62
2022/08/27 04:06:39;;;;;;;8.10;3.55;;;;;;;18.41;83.30;94208.06;5075564;28;20199;-64
2022/08/27 04:09:04;;;;;;;9.70;3.90;;;;;;;18.25;83.72;94200.63;5075212;28;20717;-62
2022/08/27 04:11:33;;;;;;;10.40;3.83;;;;;;;18.24;83.81;94207.56;5075520;28;20195;-63
2022/08/27 04:13:59;;;;;;;7.78;3.35;;;;;;;18.24;83.96;94196.50;5093823;28;20216;-62
2022/08/27 04:16:25;;;;;;;11.25;4.05;;;;;;;18.17;84.07;94193.06;5093103;28;20247;-64
2022/08/27 04:18:54;;;;;;;9.00;4.13;;;;;;;18.00;85.67;94171.16;5093741;28;20223;-64
2022/08/27 04:21:21;;;;;;;7.20;3.80;;;;;;;17.92;86.70;94153.28;5075069;28;20198;-63
2022/08/27 04:23:48;;;;;;;9.55;4.13;;;;;;;17.99;86.67;94164.44;5074873;28;20602;-64
2022/08/27 04:26:14;;;;;;;9.20;3.47;;;;;;;18.06;87.02;94163.50;5075062;28;20192;-63
2022/08/27 04:28:40;;;;;;;6.43;4.10;;;;;;;18.18;86.64;94156.84;5093231;28;20276;-62
2022/08/27 04:31:06;;;;;;;16.55;4.13;;;;;;;18.10;86.80;94164.69;5093087;28;20711;-63
2022/08/27 04:33:32;;;;;;;9.27;3.60;;;;;;;18.19;86.65;94168.75;5093335;28;20207;-62
2022/08/27 04:36:05;;;;;;;10.63;4.20;;;;;;;18.08;86.66;94165.91;5093161;28;20720;-63
2022/08/27 04:38:31;;;;;;;7.28;4.00;;;;;;;18.05;87.01;94171.41;5093292;28;20306;-62
2022/08/27 04:43:41;;;;;;;6.53;3.70;;;;;;;17.94;88.55;94139.25;5093554;28;20601;-64
2022/08/27 04:46:07;;;;;;;8.95;3.65;;;;;;;17.93;88.20;94147.97;5092963;28;20188;-62
2022/08/27 04:48:33;;;;;;;12.90;4.20;;;;;;;17.92;88.78;94136.06;5093061;28;20727;-64
2022/08/27 04:50:59;;;;;;;13.45;4.38;;;;;;;17.93;88.84;94139.44;5074686;28;20192;-64
2022/08/27 04:53:25;;;;;;;15.25;3.90;;;;;;;17.93;89.08;94139.44;5092641;28;20188;-63
2022/08/27 04:55:53;;;;;;;7.93;3.90;;;;;;;18.12;88.55;94165.31;5092770;28;20190;-61
2022/08/27 04:58:21;;;;;;;8.40;4.32;;;;;;;18.20;92.05;94131.72;5092554;28;20196;-62
2022/08/27 05:00:57;;;;;;;10.52;4.13;;;;;;;18.15;89.33;94162.38;5092766;28;20180;-64
2022/08/27 05:03:24;;;;;;;8.30;4.35;;;;;;;18.27;92.96;94129.19;5074561;28;20275;-61
2022/08/27 05:05:51;;;;;;;9.77;6.40;;;;;;;18.41;89.03;94180.56;5074741;28;20199;-62
2022/08/27 05:08:17;;;;;;;20.65;4.70;;;;;;;18.47;89.09;94173.09;5057947;28;20199;-60
2022/08/27 05:10:45;;;;;;;9.65;4.00;;;;;;;18.55;88.01;94193.53;5092675;28;20180;-60
2022/08/27 05:13:11;;;;;;;11.82;4.40;;;;;;;18.83;93.66;94140.19;5092376;28;20188;-63
2022/08/27 05:15:38;;;;;;;6.72;3.78;;;;;;;19.03;85.15;94244.91;5074313;28;20191;-61
2022/08/27 05:18:06;;;;;;;10.95;4.00;;;;;;;19.05;84.92;94249.88;5092621;28;20192;-61
2022/08/27 05:20:32;;;;;;;8.65;4.28;;;;;;;19.05;87.06;94201.72;5092243;28;20274;-61
2022/08/27 05:22:58;;;;;;;8.32;3.80;;;;;;;19.15;86.23;94229.69;5092548;28;20250;-62
2022/08/27 05:25:25;;;;;;;8.20;3.55;;;;;;;19.20;85.47;94230.72;5074190;28;20302;-62
2022/08/27 05:27:51;;;;;;;8.63;3.85;;;;;;;19.16;83.26;94270.75;5092361;28;20275;-63
2022/08/27 05:30:17;;;;;;;11.05;4.25;;;;;;;18.98;84.06;94249.06;5074080;28;20208;-64
2022/08/27 05:32:43;;;;;;;9.20;3.80;;;;;;;18.97;84.81;94244.88;5074233;28;20199;-62
2022/08/27 05:35:09;;;;;;;7.20;4.43;;;;;;;18.79;86.65;94209.31;5092233;28;20211;-64
2022/08/27 05:37:35;;;;;;;12.00;4.15;;;;;;;19.00;86.25;94216.16;5073844;28;20204;-62
2022/08/27 05:40:02;;;;;;;5.35;3.67;;;;;;;19.00;85.07;94239.34;5092030;28;20208;-62
2022/08/27 05:42:30;;;;;;;8.93;3.85;;;;;;;18.90;85.76;94228.59;5092139;28;20184;-64
2022/08/27 05:44:56;;;;;;;7.40;3.85;;;;;;;18.91;86.31;94212.94;5073824;28;20773;-65
2022/08/27 05:47:22;;;;;;;11.73;4.63;;;;;;;18.92;86.14;94226.63;5092060;28;20184;-65
2022/08/27 05:49:53;;;;;;;10.45;4.35;;;;;;;18.93;86.19;94221.28;5091625;28;20273;-64
2022/08/27 05:52:20;;;;;;;10.48;4.30;;;;;;;18.91;86.39;94214.72;5091757;28;20196;-66
2022/08/27 05:54:46;;;;;;;6.82;3.88;;;;;;;19.01;86.68;94220.31;5091921;28;20204;-66
2022/08/27 05:57:12;;;;;;;10.95;4.60;;;;;;;19.16;85.68;94239.03;5091690;28;20204;-64
2022/08/27 06:02:22;;;;;;;9.18;4.10;;;;;;;19.18;88.66;94185.50;5092011;28;20256;-65
2022/08/27 06:04:47;;;;;;;17.50;7.63;;;;;;;19.39;94.87;94141.59;5091527;28;20700;-64
2022/08/27 06:07:14;;;;;;;16.80;6.40;;;;;;;19.46;90.00;94169.94;5091146;28;20191;-65
2022/08/27 06:09:40;;;;;;;10.88;4.85;;;;;;;19.51;85.61;94245.75;5091883;28;20247;-65
2022/08/27 06:12:07;;;;;;;8.63;4.32;;;;;;;19.64;88.73;94209.66;5091451;28;20183;-65
2022/08/27 06:14:34;;;;;;;14.43;4.60;;;;;;;19.34;86.44;94236.75;5073226;28;20240;-65
2022/08/27 06:17:01;;;;;;;8.98;4.93;;;;;;;19.52;86.20;94239.59;5091388;28;20704;-63
2022/08/27 06:19:35;;;;;;;13.65;5.10;;;;;;;19.69;84.90;94261.47;5073201;28;20212;-64
2022/08/27 06:22:01;;;;;;;8.85;5.20;;;;;;;19.74;84.95;94251.34;5091414;28;20282;-64
2022/08/27 06:24:27;;;;;;;13.55;5.00;;;;;;;19.78;83.88;94270.59;5091742;28;20200;-64
2022/08/27 06:26:53;;;;;;;12.48;5.28;;;;;;;19.73;84.95;94252.34;5091216;28;20215;-63
2022/08/27 06:29:18;;;;;;;12.02;4.68;;;;;;;19.77;85.18;94252.75;5073266;28;20644;-62
2022/08/27 06:31:44;;;;;;;12.73;4.47;;;;;;;19.76;84.74;94267.41;5091183;28;20237;-61
2022/08/27 06:34:10;;;;;;;12.57;5.15;;;;;;;19.83;83.94;94276.00;5091412;28;20212;-62
2022/08/27 06:36:38;;;;;;;7.78;4.85;;;;;;;19.93;83.66;94283.34;5091013;28;20556;-63
2022/08/27 06:39:05;;;;;;;13.98;5.28;;;;;;;20.00;82.75;94294.47;5072730;28;20204;-63
2022/08/27 06:41:32;;;;;;;11.60;5.13;;;;;;;20.15;82.48;94291.72;5091073;28;20210;-62
2022/08/27 06:43:57;;;;;;;10.57;4.97;;;;;;;20.29;82.79;94299.31;5091123;28;20204;-62
2022/08/27 06:46:25;;;;;;;10.13;4.55;;;;;;;20.38;81.93;94312.81;5072965;28;20297;-62
2022/08/27 06:48:57;;;;;;;10.55;5.07;;;;;;;20.50;80.84;94329.31;5090869;28;20212;-64
2022/08/27 06:51:25;;;;;;;15.88;6.32;;;;;;;20.44;81.60;94314.63;5090992;28;20251;-62
2022/08/27 06:53:56;;;;;;;11.27;5.20;;;;;;;20.46;81.30;94312.63;5091382;28;20208;-62
2022/08/27 06:56:22;;;;;;;14.07;5.80;;;;;;;20.71;80.30;94326.53;5091060;28;20677;-61
2022/08/27 06:58:50;;;;;;;10.90;5.40;;;;;;;20.72;81.90;94295.34;5091070;28;20215;-64
2022/08/27 07:01:21;;;;;;;13.90;4.88;;;;;;;21.01;77.34;94376.81;5091152;28;20609;-63
2022/08/27 07:03:46;;;;;;;16.25;4.97;;;;;;;20.96;78.48;94355.94;5090708;28;20272;-62
2022/08/27 07:06:14;;;;;;;11.75;4.97;;;;;;;21.02;79.00;94339.66;5090441;28;20184;-61
2022/08/27 07:08:40;;;;;;;13.75;4.82;;;;;;;21.23;76.57;94387.78;5090501;28;20219;-64
2022/08/27 07:11:08;;;;;;;11.60;5.20;;;;;;;21.36;77.07;94374.81;5090840;28;20669;-64
2022/08/27 07:13:34;;;;;;;8.82;5.60;;;;;;;21.43;74.28;94422.94;5091143;28;20212;-64
2022/08/27 07:16:04;;;;;;;12.40;5.13;;;;;;;21.29;74.94;94395.50;5090830;28;20581;-64
2022/08/27 07:18:29;;;;;;;9.52;5.18;;;;;;;21.26;75.32;94380.41;5092626;28;20211;-62
2022/08/27 07:20:56;;;;;;;13.27;5.20;;;;;;;21.29;76.43;94374.03;5076252;28;20558;-63
2022/08/27 07:23:21;;;;;;;13.98;5.60;;;;;;;21.37;76.18;94369.44;5094301;28;20204;-64
2022/08/27 07:25:47;;;;;;;10.45;5.05;;;;;;;21.53;76.20;94368.22;5076053;28;20620;-62
2022/08/27 07:28:13;;;;;;;13.25;5.47;;;;;;;21.61;76.26;94361.00;5094210;28;20180;-64
2022/08/27 07:30:39;;;;;;;14.73;5.53;;;;;;;21.68;74.92;94389.44;5075777;28;20198;-62
2022/08/27 07:33:04;;;;;;;9.85;5.00;;;;;;;21.87;75.49;94387.84;5075936;28;20218;-63
2022/08/27 07:35:30;;;;;;;17.00;6.15;;;;;;;21.90;76.12;94377.09;5076063;28;20729;-62
2022/08/27 07:37:56;;;;;;;11.20;5.07;;;;;;;22.00;73.62;94418.88;5093893;28;20302;-64
2022/08/27 07:40:23;;;;;;;15.75;4.82;;;;;;;22.14;73.54;94421.16;5094046;28;20283;-63
2022/08/27 07:45:33;;;;;;;12.35;5.25;;;;;;;22.40;72.60;94441.00;5094471;28;20253;-64
2022/08/27 07:47:59;;;;;;;17.20;5.75;;;;;;;22.59;71.98;94447.09;5075528;28;20196;-63
2022/08/27 07:50:25;;;;;;;11.25;5.82;;;;;;;22.37;71.25;94451.75;5075473;28;20253;-62
2022/08/27 07:52:51;;;;;;;9.73;5.10;;;;;;;22.64;71.51;94437.72;5093885;28;20188;-63
2022/08/27 07:55:17;;;;;;;16.13;5.10;;;;;;;22.73;72.67;94423.47;5093805;28;20362;-64
2022/08/27 07:57:44;;;;;;;21.25;5.50;;;;;;;22.75;72.21;94433.63;5093627;28;20212;-63
2022/08/27 08:00:10;;;;;;;12.57;4.97;;;;;;;23.03;71.19;94449.59;5075401;28;20203;-63
2022/08/27 08:02:37;;;;;;;13.35;5.75;;;;;;;23.06;72.02;94426.63;5075309;28;20223;-62
2022/08/27 08:05:04;;;;;;;9.25;5.20;;;;;;;23.17;72.28;94430.31;5093802;28;20307;-61
2022/08/27 08:07:29;;;;;;;11.70;5.03;;;;;;;23.22;71.43;94435.69;5075367;28;20279;-62
2022/08/27 08:09:55;;;;;;;12.18;6.03;;;;;;;23.28;70.18;94463.38;5094153;28;20240;-64
2022/08/27 08:12:21;;;;;;;14.05;5.97;;;;;;;23.48;71.46;94439.88;5075185;28;20180;-63
2022/08/27 08:14:47;;;;;;;12.85;5.72;;;;;;;23.50;69.55;94467.22;5075099;28;20212;-62
2022/08/27 08:17:14;;;;;;;13.00;4.82;;;;;;;23.45;68.05;94502.59;5093263;28;20212;-62
2022/08/27 08:19:39;;;;;;;13.18;4.97;;;;;;;23.59;68.67;94470.34;5093738;28;20200;-64
2022/08/27 08:22:06;;;;;;;14.60;5.90;;;;;;;23.81;68.61;94466.31;5093249;28;20252;-62
2022/08/27 08:24:33;;;;;;;17.85;5.93;;;;;;;23.90;69.84;94445.03;5093250;28;20216;-64
2022/08/27 08:26:58;;;;;;;13.18;6.05;;;;;;;23.95;65.92;94522.31;5093564;28;20212;-63
2022/08/27 08:29:24;;;;;;;16.23;6.72;;;;;;;23.97;62.10;94595.63;5074776;28;20754;-62
2022/08/27 08:31:49;;;;;;;12.60;5.15;;;;;;;24.03;61.28;94579.22;5075164;28;20195;-62
2022/08/27 08:34:15;;;;;;;12.13;4.97;;;;;;;24.01;61.64;94558.63;5093164;28;20215;-61
2022/08/27 08:36:40;;;;;;;12.77;6.35;;;;;;;24.05;60.17;94587.59;5093264;28;20211;-62
2022/08/27 08:39:06;;;;;;;22.23;11.02;;;;;;;24.12;60.05;94576.13;5093176;28;20804;-65
2022/08/27 08:41:55;;;;;;;12.70;6.38;;;;;;;24.14;61.26;94555.13;5093038;28;20172;-64
2022/08/27 08:44:29;;;;;;;14.27;4.32;;;;;;;24.41;59.96;94585.03;5074946;28;20602;-63
2022/08/27 08:47:22;;;;;;;14.02;4.72;;;;;;;24.72;59.51;94577.09;5074678;28;20187;-63
2022/08/27 08:50:03;;;;;;;11.20;4.72;;;;;;;24.86;58.80;94590.75;5092933;28;20216;-63
2022/08/27 08:52:55;;;;;;;11.63;4.93;;;;;;;24.90;58.18;94610.13;5092913;28;20204;-65
2022/08/27 08:55:30;;;;;;;7.45;4.38;;;;;;;25.17;60.55;94540.34;5074722;28;20269;-62
2022/08/27 08:58:33;;;;;;;13.43;4.90;;;;;;;25.54;56.82;94622.50;5092787;28;20238;-62
2022/08/27 09:01:02;;;;;;;12.70;4.78;;;;;;;25.56;57.23;94612.66;5074630;28;20281;-65
2022/08/27 09:03:31;;;;;;;11.73;4.90;;;;;;;25.60;54.12;94562.53;5092916;28;20205;-65
2022/08/27 09:06:31;;;;;;;12.13;4.82;;;;;;;25.83;54.31;94534.91;5074624;28;20189;-64
2022/08/27 09:09:07;;;;;;;8.68;4.55;;;;;;;26.18;54.00;94528.69;5074737;28;20721;-62
2022/08/27 09:11:48;;;;;;;13.05;4.05;;;;;;;26.08;49.61;94590.25;5092474;28;20184;-63
2022/08/27 09:14:20;;;;;;;12.65;3.80;;;;;;;26.46;50.75;94549.63;5092342;28;20192;-62
2022/08/27 09:16:45;;;;;;;11.75;5.72;;;;;;;26.60;51.54;94527.47;5074292;28;20212;-64
2022/08/27 09:19:11;;;;;;;8.77;4.60;;;;;;;26.86;51.22;94539.25;5100344;22;20224;-62
2022/08/27 09:21:43;;;;;;;11.52;4.63;;;;;;;26.99;47.62;94574.69;5092287;28;20414;-63
2022/08/27 09:24:24;;;;;;;14.50;3.88;;;;;;;27.18;49.37;94536.94;5092271;28;20372;-62
2022/08/27 09:26:50;;;;;;;8.73;4.38;;;;;;;27.49;47.11;94556.56;5092304;28;20188;-62
2022/08/27 09:29:36;;;;;;;9.85;4.70;;;;;;;27.83;48.74;94522.38;5073946;28;20232;-62
2022/08/27 09:32:07;;;;;;;11.10;4.38;;;;;;;27.92;48.06;94522.75;5092274;28;20180;-64
2022/08/27 09:34:42;;;;;;;7.55;4.20;;;;;;;28.30;48.06;94511.56;5092640;28;20242;-62
2022/08/27 09:37:14;;;;;;;11.10;3.92;;;;;;;28.49;43.09;94601.78;5092383;28;20579;-63
2022/08/27 09:39:47;;;;;;;18.40;4.38;;;;;;;28.57;43.82;94583.06;5091904;28;20210;-61
2022/08/27 09:42:47;;;;;;;15.55;3.60;;;;;;;28.43;43.67;94581.81;5091369;28;20207;-64
2022/08/27 09:45:21;;;;;;;13.10;4.05;;;;;;;28.47;42.95;94596.00;5074585;28;20231;-62
2022/08/27 09:47:53;;;;;;;16.95;4.95;;;;;;;28.50;42.97;94583.25;5074601;28;20183;-63
2022/08/27 09:50:22;;;;;;;11.38;4.32;;;;;;;28.60;42.76;94578.16;5091863;28;20204;-62
2022/08/27 09:52:50;;;;;;;10.60;4.22;;;;;;;28.71;42.93;94568.59;5091741;28;20192;-63
2022/08/27 09:55:51;;;;;;;12.68;4.53;;;;;;;28.98;41.42;94593.03;5073485;28;20253;-63
2022/08/27 09:58:22;;;;;;;15.52;4.00;;;;;;;28.96;40.80;94589.84;5004788;28;20265;-64
2022/08/27 10:00:48;;;;;;;12.27;3.72;;;;;;;29.12;41.23;94578.50;5091497;28;20283;-64
2022/08/27 10:03:14;;;;;;;7.45;3.58;;;;;;;29.23;40.11;94606.41;5091838;28;20223;-63
2022/08/27 10:05:58;;;;;;;9.93;3.50;;;;;;;29.25;40.00;94598.31;5091832;28;20219;-63
2022/08/27 10:08:40;;;;;;;10.60;3.95;;;;;;;29.10;39.48;94604.16;5091599;28;20240;-63
2022/08/27 10:11:10;;;;;;;9.55;3.67;;;;;;;29.40;38.83;94604.50;5091846;28;20188;-65
2022/08/27 10:13:57;;;;;;;11.20;3.70;;;;;;;29.41;37.72;94613.94;5091176;28;20211;-63
2022/08/27 10:17:08;;;;;;;10.65;3.95;;;;;;;29.90;35.82;94661.13;5091301;28;20212;-64
2022/08/27 10:19:51;;;;;;;12.90;3.65;;;;;;;30.27;37.33;94604.22;5091836;28;20244;-65
2022/08/27 10:22:39;;;;;;;8.82;3.63;;;;;;;30.48;36.18;94640.84;5091578;28;20704;-63
2022/08/27 10:25:46;;;;;;;15.55;3.83;;;;;;;30.47;36.28;94620.13;5073096;28;20716;-62
2022/08/27 10:28:29;;;;;;;11.07;3.60;;;;;;;30.26;36.38;94615.75;5053113;28;20664;-63
2022/08/27 10:31:01;;;;;;;14.68;3.88;;;;;;;30.64;34.77;94660.91;5073924;28;20230;-65
2022/08/27 10:34:10;;;;;;;18.23;3.65;;;;;;;30.28;34.50;94634.66;5073012;28;20188;-64
2022/08/27 10:37:10;;;;;;;10.13;4.18;;;;;;;30.81;36.07;94602.97;5072823;28;20231;-64
2022/08/27 10:40:05;;;;;;;12.23;4.75;;;;;;;31.44;36.88;94579.06;5073200;28;20211;-63
2022/08/27 10:42:38;;;;;;;15.02;4.95;;;;;;;31.84;34.56;94627.47;5073013;28;20196;-64
2022/08/27 10:45:41;;;;;;;9.70;4.18;;;;;;;32.02;32.66;94648.84;5091253;28;20222;-63
2022/08/27 10:48:14;;;;;;;15.93;4.40;;;;;;;31.91;31.62;94659.59;5091294;28;20206;-63
2022/08/27 10:51:18;;;;;;;11.57;3.80;;;;;;;31.34;31.34;94642.09;5091049;28;20262;-64
2022/08/27 10:53:58;;;;;;;9.75;3.72;;;;;;;30.95;31.78;94629.59;5039837;28;20230;-63
2022/08/27 10:56:45;;;;;;;13.07;4.03;;;;;;;30.99;31.40;94631.44;5072588;28;20212;-63
2022/08/27 10:59:36;;;;;;;12.93;3.78;;;;;;;31.55;31.50;94615.88;5090924;28;20258;-64
2022/08/27 11:02:23;;;;;;;10.32;4.05;;;;;;;31.94;32.26;94594.13;5090898;28;20658;-63
2022/08/27 11:04:56;;;;;;;12.27;4.22;;;;;;;32.45;34.67;94539.59;5072407;28;20219;-62
2022/08/27 11:07:36;;;;;;;21.45;5.72;;;;;;;32.72;32.04;94582.19;5072515;28;20191;-64
2022/08/27 11:10:06;;;;;;;8.77;4.15;;;;;;;33.05;30.97;94613.16;5072487;28;20216;-64
2022/08/27 11:12:40;;;;;;;14.55;4.57;;;;;;;32.81;30.40;94620.06;5072431;28;20191;-63
2022/08/27 11:15:17;;;;;;;15.57;4.30;;;;;;;33.04;28.44;94655.63;5090805;28;20212;-62
2022/08/27 11:17:56;;;;;;;10.43;4.30;;;;;;;32.31;28.37;94651.75;5091083;28;20701;-63
2022/08/27 11:20:28;;;;;;;10.52;4.63;;;;;;;32.07;29.14;94632.28;5072399;28;20235;-63
2022/08/27 11:23:06;;;;;;;16.38;4.43;;;;;;;32.12;28.17;94646.22;5090637;28;20275;-62
2022/08/27 11:25:40;;;;;;;12.40;4.45;;;;;;;33.03;31.42;94553.88;5090499;28;20211;-62
2022/08/27 11:28:07;;;;;;;11.15;4.30;;;;;;;33.71;31.07;94557.44;5090408;28;20329;-63
2022/08/27 11:31:10;;;;;;;13.77;4.50;;;;;;;33.67;28.73;94609.19;5090537;28;20184;-64
2022/08/27 11:33:52;;;;;;;10.63;4.05;;;;;;;33.75;28.38;94619.94;5090661;28;20212;-63
2022/08/27 11:36:39;;;;;;;13.93;4.47;;;;;;;33.51;27.30;94626.16;5090518;28;20749;-64
2022/08/27 11:39:30;;;;;;;13.90;4.20;;;;;;;33.58;28.04;94595.78;5072039;28;20230;-64
2022/08/27 11:42:17;;;;;;;14.77;4.55;;;;;;;34.24;30.50;94539.88;5071714;28;20249;-62
2022/08/27 11:44:46;;;;;;;10.65;4.30;;;;;;;34.43;26.93;94619.94;5090118;28;20636;-64
2022/08/27 11:47:13;;;;;;;9.98;4.13;;;;;;;34.62;26.78;94623.50;5090229;28;20194;-64
2022/08/27 11:49:58;;;;;;;16.98;4.72;;;;;;;34.84;25.82;94642.28;5090651;28;20295;-66
2022/08/27 11:52:52;;;;;;;15.50;4.43;;;;;;;34.68;26.67;94607.28;5090345;28;20265;-65
2022/08/27 11:55:21;;;;;;;7.72;4.00;;;;;;;34.82;25.85;94609.28;5090031;28;20218;-65
2022/08/27 11:57:49;;;;;;;13.73;4.60;;;;;;;34.76;26.76;94574.19;5071938;28;20303;-64
2022/08/27 12:00:26;;;;;;;10.80;4.57;;;;;;;34.88;26.19;94590.44;5090147;28;20551;-62